Le Sueur, Minnesota
Current Conditions -  °F | °C
As of 10:35 AM on Friday 24 Oct 2014 (Local Time) from KMKT Reporting Station
Clear Clear  
Wind Chill: 59°   Ceiling: Unl
Heat Index: 59°   Visibility: 10mi
Dew Point: 48°   Wind: 12mph
Humidity: 67%   Direction: 190°S
Pressure: 29.87"   Gusts: NA
Location:  44.46°N, 93.92°W
Report Text: KMKT 241535Z AUTO 19010KT 10SM CLR 15/09 A2987 RMK AO1
Loading
Personal Weather Stations






























Interactive Weather Map
Tropical Storm Tracking
New forecast layout! Learn more

10-Day Weather Forecast

Advertisements
Track Severe Weather on mobile